createdAt,value
2023-10-08T00:02:27.023Z,2.60
2023-10-08T00:04:57.269Z,3.25
2023-10-08T00:07:28.964Z,2.72
2023-10-08T00:09:56.406Z,2.17
2023-10-08T00:12:24.784Z,2.25
2023-10-08T00:14:54.520Z,2.92
2023-10-08T00:17:22.018Z,2.67
2023-10-08T00:19:54.198Z,1.90
2023-10-08T00:22:21.710Z,2.35
2023-10-08T00:24:50.885Z,2.15
2023-10-08T00:27:19.002Z,3.13
2023-10-08T00:29:46.690Z,3.17
2023-10-08T00:32:14.031Z,2.67
2023-10-08T00:34:42.980Z,3.03
2023-10-08T00:37:12.086Z,3.17
2023-10-08T00:39:41.080Z,2.50
2023-10-08T00:42:09.214Z,2.78
2023-10-08T00:44:49.376Z,2.78
2023-10-08T00:47:22.492Z,3.20
2023-10-08T00:50:03.713Z,2.92
2023-10-08T00:52:31.462Z,2.83
2023-10-08T00:55:10.120Z,2.42
2023-10-08T00:57:38.240Z,2.50
2023-10-08T01:00:16.620Z,2.97
2023-10-08T01:02:47.244Z,2.92
2023-10-08T01:05:19.139Z,3.60
2023-10-08T01:07:49.942Z,2.53
2023-10-08T01:10:21.724Z,2.75
2023-10-08T01:13:14.811Z,2.50
2023-10-08T01:15:42.862Z,2.78
2023-10-08T01:18:16.642Z,2.30
2023-10-08T01:20:53.616Z,3.00
2023-10-08T01:23:22.197Z,2.40
2023-10-08T01:25:58.633Z,3.17
2023-10-08T01:28:25.941Z,2.03
2023-10-08T01:30:58.455Z,2.00
2023-10-08T01:33:29.513Z,3.50
2023-10-08T01:36:05.411Z,3.00
2023-10-08T01:38:36.435Z,3.00
2023-10-08T01:41:19.719Z,3.00
2023-10-08T01:43:47.389Z,2.53
2023-10-08T01:46:16.805Z,2.75
2023-10-08T01:48:46.381Z,2.78
2023-10-08T01:51:25.664Z,2.78
2023-10-08T01:53:55.926Z,2.97
2023-10-08T01:56:23.353Z,2.95
2023-10-08T01:58:50.730Z,2.53
2023-10-08T02:01:21.649Z,3.10
2023-10-08T02:03:49.598Z,3.80
2023-10-08T02:06:17.122Z,3.15
2023-10-08T02:08:44.446Z,2.75
2023-10-08T02:11:12.554Z,3.92
2023-10-08T02:13:39.865Z,3.85
2023-10-08T02:16:08.396Z,3.03
2023-10-08T02:18:36.251Z,3.42
2023-10-08T02:21:03.807Z,3.75
2023-10-08T02:23:31.050Z,3.83
2023-10-08T02:25:58.650Z,4.05
2023-10-08T02:28:26.897Z,4.43
2023-10-08T02:30:54.149Z,2.92
2023-10-08T02:33:21.665Z,4.20
2023-10-08T02:35:50.458Z,3.30
2023-10-08T02:38:19.588Z,4.40
2023-10-08T02:40:50.297Z,3.80
2023-10-08T02:43:18.746Z,4.88
2023-10-08T02:45:51.043Z,4.20
2023-10-08T02:48:19.615Z,4.47
2023-10-08T02:50:47.513Z,3.85
2023-10-08T02:53:21.600Z,4.25
2023-10-08T02:55:48.856Z,4.35
2023-10-08T02:58:16.797Z,4.00
2023-10-08T03:00:45.079Z,3.92
2023-10-08T03:03:19.672Z,4.10
2023-10-08T03:05:48.474Z,4.00
2023-10-08T03:08:21.749Z,3.83
2023-10-08T03:10:49.823Z,4.40
2023-10-08T03:13:17.918Z,4.28
2023-10-08T03:15:59.063Z,4.55
2023-10-08T03:18:26.762Z,3.97
2023-10-08T03:20:54.036Z,4.30
2023-10-08T03:23:24.524Z,4.65
2023-10-08T03:25:57.609Z,4.68
2023-10-08T03:28:26.043Z,3.58
2023-10-08T03:30:57.413Z,4.05
2023-10-08T03:33:25.415Z,3.80
2023-10-08T03:36:01.255Z,3.72
2023-10-08T03:41:17.699Z,4.00
2023-10-08T03:43:57.151Z,3.75
2023-10-08T03:46:25.861Z,3.97
2023-10-08T03:48:53.437Z,3.67
2023-10-08T03:51:23.773Z,3.88
2023-10-08T03:54:00.166Z,4.30
2023-10-08T03:56:31.048Z,3.50
2023-10-08T03:59:01.942Z,4.38
2023-10-08T04:01:33.766Z,3.60
2023-10-08T04:04:01.968Z,3.67
2023-10-08T04:06:39.135Z,4.10
2023-10-08T04:09:10.179Z,4.18
2023-10-08T04:11:50.522Z,4.13
2023-10-08T04:14:19.054Z,3.13
2023-10-08T04:16:47.242Z,3.45
2023-10-08T04:19:19.131Z,3.63
2023-10-08T04:21:54.593Z,2.97
2023-10-08T04:24:29.275Z,3.60
2023-10-08T04:26:59.976Z,4.13
2023-10-08T04:29:27.807Z,3.70
2023-10-08T04:32:13.296Z,3.22
2023-10-08T04:34:46.566Z,3.65
2023-10-08T04:37:14.191Z,3.33
2023-10-08T04:39:48.090Z,3.50
2023-10-08T04:42:19.463Z,3.53
2023-10-08T04:44:47.238Z,3.33
2023-10-08T04:47:32.780Z,3.70
2023-10-08T04:50:00.267Z,4.50
2023-10-08T04:52:29.049Z,3.22
2023-10-08T04:54:57.466Z,3.60
2023-10-08T04:57:26.873Z,3.63
2023-10-08T04:59:58.901Z,4.07
2023-10-08T05:02:50.178Z,4.43
2023-10-08T05:05:17.884Z,4.40
2023-10-08T05:07:47.816Z,4.32
2023-10-08T05:10:25.605Z,4.13
2023-10-08T05:13:06.193Z,4.25
2023-10-08T05:15:51.225Z,3.90
2023-10-08T05:18:18.685Z,3.78
2023-10-08T05:20:51.577Z,4.25
2023-10-08T05:23:25.546Z,4.57
2023-10-08T05:26:09.345Z,4.07
2023-10-08T05:28:47.634Z,3.78
2023-10-08T05:31:17.726Z,3.20
2023-10-08T05:33:48.492Z,3.80
2023-10-08T05:36:29.418Z,4.72
2023-10-08T05:39:05.517Z,3.75
2023-10-08T05:41:40.794Z,4.22
2023-10-08T05:44:20.280Z,4.50
2023-10-08T05:46:56.268Z,4.15
2023-10-08T05:49:32.989Z,4.50
2023-10-08T05:52:00.528Z,3.60
2023-10-08T05:54:30.690Z,4.45
2023-10-08T05:57:12.905Z,4.13
2023-10-08T05:59:56.580Z,3.55
2023-10-08T06:02:34.680Z,4.28
2023-10-08T06:05:24.831Z,3.90
2023-10-08T06:07:54.097Z,4.50
2023-10-08T06:10:32.835Z,3.83
2023-10-08T06:13:14.714Z,4.18
2023-10-08T06:15:45.912Z,4.57
2023-10-08T06:18:14.428Z,4.25
2023-10-08T06:20:44.977Z,3.58
2023-10-08T06:23:14.960Z,3.92
2023-10-08T06:25:48.312Z,4.07
2023-10-08T06:28:19.932Z,2.88
2023-10-08T06:30:54.655Z,2.50
2023-10-08T06:33:26.690Z,3.22
2023-10-08T06:36:03.935Z,2.70
2023-10-08T06:38:32.345Z,3.17
2023-10-08T06:41:10.333Z,2.92
2023-10-08T06:43:38.945Z,3.38
2023-10-08T06:46:08.985Z,2.40
2023-10-08T06:48:36.573Z,3.08
2023-10-08T06:51:14.018Z,3.00
2023-10-08T06:53:42.300Z,3.20
2023-10-08T06:56:13.493Z,2.92
2023-10-08T06:58:46.647Z,2.95
2023-10-08T07:01:14.519Z,2.50
2023-10-08T07:03:42.009Z,2.40
2023-10-08T07:06:26.566Z,2.20
2023-10-08T07:08:56.866Z,2.10
2023-10-08T07:11:24.286Z,2.38
2023-10-08T07:13:52.168Z,2.08
2023-10-08T07:16:20.112Z,2.92
2023-10-08T07:18:53.837Z,1.90
2023-10-08T07:21:25.077Z,2.40
2023-10-08T07:23:57.702Z,2.05
2023-10-08T07:26:26.766Z,1.92
2023-10-08T07:28:54.276Z,1.98
2023-10-08T07:31:24.185Z,1.83
2023-10-08T07:33:58.177Z,1.80
2023-10-08T07:36:27.823Z,2.35
2023-10-08T07:38:55.400Z,2.28
2023-10-08T07:41:22.681Z,2.25
2023-10-08T07:43:57.100Z,2.15
2023-10-08T07:46:24.540Z,1.77
2023-10-08T07:48:51.833Z,1.73
2023-10-08T07:51:23.208Z,1.85
2023-10-08T07:53:58.149Z,2.15
2023-10-08T07:56:26.134Z,1.80
2023-10-08T07:58:56.766Z,1.90
2023-10-08T08:01:26.046Z,1.42
2023-10-08T08:03:53.401Z,1.70
2023-10-08T08:06:20.814Z,1.85
2023-10-08T08:08:48.082Z,1.50
2023-10-08T08:11:18.461Z,2.22
2023-10-08T08:13:46.388Z,1.67
2023-10-08T08:16:17.913Z,1.33
2023-10-08T08:18:45.827Z,1.00
2023-10-08T08:21:16.245Z,1.60
2023-10-08T08:23:50.781Z,1.50
2023-10-08T08:26:30.248Z,1.47
2023-10-08T08:29:01.078Z,1.60
2023-10-08T08:31:32.489Z,1.17
2023-10-08T08:34:21.214Z,1.58
2023-10-08T08:36:50.112Z,1.70
2023-10-08T08:39:29.576Z,1.27
2023-10-08T08:42:01.237Z,1.23
2023-10-08T08:44:32.523Z,1.42
2023-10-08T08:47:05.315Z,1.58
2023-10-08T08:49:38.513Z,1.33
2023-10-08T08:52:05.946Z,1.00
2023-10-08T08:54:33.763Z,1.10
2023-10-08T08:57:05.666Z,1.30
2023-10-08T08:59:33.072Z,0.88
2023-10-08T09:02:01.120Z,0.70
2023-10-08T09:04:32.015Z,0.75
2023-10-08T09:07:05.493Z,1.13
2023-10-08T09:09:40.442Z,1.10
2023-10-08T09:12:11.605Z,1.10
2023-10-08T09:14:42.518Z,0.73
2023-10-08T09:17:10.584Z,0.95
2023-10-08T09:19:39.137Z,1.10
2023-10-08T09:22:13.065Z,1.10
2023-10-08T09:24:42.339Z,1.02
2023-10-08T09:27:15.684Z,0.73
2023-10-08T09:29:43.479Z,1.05
2023-10-08T09:32:12.680Z,1.00
2023-10-08T09:34:40.976Z,0.90
2023-10-08T09:37:11.274Z,1.08
2023-10-08T09:39:38.520Z,1.30
2023-10-08T09:42:12.648Z,1.10
2023-10-08T09:44:40.805Z,1.00
2023-10-08T09:47:11.181Z,1.10
2023-10-08T09:50:03.430Z,0.90
2023-10-08T09:52:36.289Z,0.95
2023-10-08T09:55:11.377Z,0.90
2023-10-08T09:57:38.974Z,0.60
2023-10-08T10:00:12.091Z,1.10
2023-10-08T10:02:39.360Z,1.13
2023-10-08T10:05:07.328Z,1.45
2023-10-08T10:07:36.137Z,0.95
2023-10-08T10:10:14.940Z,0.77
2023-10-08T10:12:44.480Z,0.80
2023-10-08T10:15:17.472Z,0.68
2023-10-08T10:17:57.238Z,0.85
2023-10-08T10:20:25.718Z,0.70
2023-10-08T10:22:52.944Z,0.85
2023-10-08T10:25:38.209Z,1.10
2023-10-08T10:28:05.291Z,0.50
2023-10-08T10:30:33.267Z,0.70
2023-10-08T10:33:03.479Z,1.10
2023-10-08T10:35:30.851Z,0.75
2023-10-08T10:38:04.359Z,0.90
2023-10-08T10:40:40.871Z,0.70
2023-10-08T10:43:16.637Z,0.52
2023-10-08T10:45:48.607Z,1.30
2023-10-08T10:48:22.972Z,0.85
2023-10-08T10:51:06.967Z,0.82
2023-10-08T10:53:57.782Z,0.57
2023-10-08T10:56:31.678Z,1.00
2023-10-08T10:59:07.368Z,0.90
2023-10-08T11:01:47.840Z,0.70
2023-10-08T11:04:20.326Z,1.13
2023-10-08T11:06:49.296Z,0.73
2023-10-08T11:09:36.767Z,0.60
2023-10-08T11:12:11.927Z,0.50
2023-10-08T11:17:23.670Z,0.57
2023-10-08T11:19:52.121Z,0.68
2023-10-08T11:22:19.645Z,0.60
2023-10-08T11:24:50.136Z,1.15
2023-10-08T11:27:29.545Z,0.82
2023-10-08T11:29:58.885Z,0.70
2023-10-08T11:32:27.085Z,1.10
2023-10-08T11:35:00.733Z,0.80
2023-10-08T11:37:34.904Z,0.77
2023-10-08T11:40:14.343Z,0.80
2023-10-08T11:42:44.943Z,0.60
2023-10-08T11:45:28.252Z,1.30
2023-10-08T11:48:03.715Z,0.52
2023-10-08T11:50:36.009Z,1.08
2023-10-08T11:53:04.608Z,0.80
2023-10-08T11:55:36.541Z,1.25
2023-10-08T11:58:12.025Z,1.00
2023-10-08T12:00:45.369Z,0.80
2023-10-08T12:03:14.324Z,0.88
2023-10-08T12:05:48.322Z,0.88
2023-10-08T12:08:17.391Z,0.98
2023-10-08T12:10:50.263Z,0.77
2023-10-08T12:13:19.409Z,1.05
2023-10-08T12:15:48.526Z,0.95
2023-10-08T12:18:29.435Z,1.10
2023-10-08T12:20:58.226Z,1.30
2023-10-08T12:23:30.306Z,1.25
2023-10-08T12:25:57.658Z,1.30
2023-10-08T12:28:25.878Z,1.30
2023-10-08T12:30:57.413Z,1.35
2023-10-08T12:33:25.466Z,1.25
2023-10-08T12:35:59.608Z,1.20
2023-10-08T12:38:29.189Z,1.55
2023-10-08T12:40:56.549Z,1.58
2023-10-08T12:43:28.249Z,1.50
2023-10-08T12:45:57.466Z,1.67
2023-10-08T12:48:28.449Z,1.10
2023-10-08T12:50:58.964Z,1.60
2023-10-08T12:53:38.030Z,1.55
2023-10-08T12:56:16.132Z,1.33
2023-10-08T12:58:49.421Z,1.20
2023-10-08T13:01:18.666Z,1.58
2023-10-08T13:03:49.886Z,1.58
2023-10-08T13:06:31.747Z,1.30
2023-10-08T13:08:59.991Z,1.17
2023-10-08T13:11:30.591Z,1.42
2023-10-08T13:13:58.648Z,1.70
2023-10-08T13:16:27.645Z,1.33
2023-10-08T13:18:57.967Z,1.38
2023-10-08T13:21:29.679Z,1.20
2023-10-08T13:24:04.235Z,1.23
2023-10-08T13:26:34.729Z,1.40
2023-10-08T13:29:02.084Z,1.33
2023-10-08T13:31:30.950Z,1.98
2023-10-08T13:33:58.586Z,1.52
2023-10-08T13:36:26.268Z,1.25
2023-10-08T13:38:53.632Z,1.05
2023-10-08T13:41:21.345Z,1.25
2023-10-08T13:43:52.451Z,1.00
2023-10-08T13:46:23.824Z,1.27
2023-10-08T13:48:51.377Z,1.50
2023-10-08T13:51:26.622Z,2.05
2023-10-08T13:54:00.438Z,2.55
2023-10-08T13:56:31.081Z,3.03
2023-10-08T13:59:15.257Z,3.45
2023-10-08T14:01:47.256Z,3.60
2023-10-08T14:04:20.965Z,3.60
2023-10-08T14:06:55.392Z,3.53
2023-10-08T14:09:32.249Z,3.65
2023-10-08T14:12:00.850Z,3.60
2023-10-08T14:14:31.073Z,4.07
2023-10-08T14:17:09.028Z,4.70
2023-10-08T14:19:40.466Z,5.03
2023-10-08T14:22:09.916Z,5.65
2023-10-08T14:24:39.414Z,5.47
2023-10-08T14:27:16.070Z,5.03
2023-10-08T14:29:47.850Z,23.10
2023-10-08T14:32:16.470Z,46.03
2023-10-08T14:34:44.613Z,18.35
2023-10-08T14:37:30.602Z,6.20
2023-10-08T14:40:16.655Z,5.55
2023-10-08T14:42:58.071Z,5.15
2023-10-08T14:45:28.154Z,7.13
2023-10-08T14:47:56.477Z,5.00
2023-10-08T14:50:28.551Z,4.45
2023-10-08T14:52:56.002Z,3.70
2023-10-08T14:55:24.275Z,2.60
2023-10-08T14:57:55.280Z,2.42
2023-10-08T15:00:25.842Z,2.40
2023-10-08T15:02:58.245Z,2.08
2023-10-08T15:05:25.600Z,2.10
2023-10-08T15:07:53.174Z,2.83
2023-10-08T15:10:22.941Z,2.55
2023-10-08T15:12:52.909Z,2.05
2023-10-08T15:15:20.914Z,1.83
2023-10-08T15:17:50.779Z,1.83
2023-10-08T15:20:21.000Z,2.00
2023-10-08T15:22:49.689Z,1.60
2023-10-08T15:25:19.208Z,1.55
2023-10-08T15:27:48.651Z,1.50
2023-10-08T15:30:23.097Z,1.60
2023-10-08T15:32:51.193Z,1.40
2023-10-08T15:35:25.213Z,1.50
2023-10-08T15:37:53.113Z,1.50
2023-10-08T15:40:21.231Z,1.70
2023-10-08T15:42:55.880Z,1.55
2023-10-08T15:45:24.542Z,1.48
2023-10-08T15:47:52.872Z,1.20
2023-10-08T15:50:28.240Z,1.20
2023-10-08T15:55:25.120Z,1.20
2023-10-08T15:57:55.809Z,1.45
2023-10-08T16:00:23.727Z,1.40
2023-10-08T16:02:51.196Z,1.42
2023-10-08T16:05:18.873Z,1.40
2023-10-08T16:07:47.013Z,1.15
2023-10-08T16:10:14.650Z,1.20
2023-10-08T16:12:41.891Z,1.50
2023-10-08T16:15:09.711Z,1.10
2023-10-08T16:17:39.624Z,1.60
2023-10-08T16:20:16.123Z,1.10
2023-10-08T16:22:48.856Z,1.30
2023-10-08T16:25:17.773Z,1.20
2023-10-08T16:27:50.354Z,1.02
2023-10-08T16:30:28.429Z,1.45
2023-10-08T16:32:56.793Z,1.42
2023-10-08T16:35:25.565Z,1.38
2023-10-08T16:37:53.910Z,1.40
2023-10-08T16:40:21.329Z,1.50
2023-10-08T16:42:49.089Z,1.35
2023-10-08T16:45:21.370Z,1.33
2023-10-08T16:47:49.273Z,1.52
2023-10-08T16:50:17.971Z,1.30
2023-10-08T16:52:46.890Z,1.42
2023-10-08T16:55:15.028Z,1.90
2023-10-08T16:57:42.689Z,1.25
2023-10-08T17:00:13.891Z,1.23
2023-10-08T17:02:41.978Z,1.55
2023-10-08T17:05:15.222Z,1.52
2023-10-08T17:07:44.070Z,2.03
2023-10-08T17:10:12.252Z,1.50
2023-10-08T17:12:41.055Z,1.73
2023-10-08T17:15:11.706Z,1.92
2023-10-08T17:17:39.933Z,1.55
2023-10-08T17:20:10.666Z,1.50
2023-10-08T17:22:38.626Z,1.52
2023-10-08T17:25:10.848Z,1.38
2023-10-08T17:27:38.625Z,1.40
2023-10-08T17:30:07.390Z,1.40
2023-10-08T17:32:36.480Z,1.45
2023-10-08T17:35:07.542Z,1.90
2023-10-08T17:37:38.242Z,1.92
2023-10-08T17:40:08.864Z,2.45
2023-10-08T17:42:36.288Z,1.98
2023-10-08T17:45:04.481Z,1.70
2023-10-08T17:47:31.755Z,1.67
2023-10-08T17:49:59.061Z,1.67
2023-10-08T17:52:26.349Z,2.05
2023-10-08T17:54:53.614Z,1.90
2023-10-08T17:57:21.889Z,1.67
2023-10-08T17:59:53.645Z,1.65
2023-10-08T18:02:21.822Z,1.83
2023-10-08T18:04:49.257Z,1.60
2023-10-08T18:07:16.526Z,1.77
2023-10-08T18:09:43.945Z,1.90
2023-10-08T18:12:11.758Z,2.17
2023-10-08T18:14:39.669Z,1.65
2023-10-08T18:17:07.356Z,1.60
2023-10-08T18:19:37.638Z,2.30
2023-10-08T18:22:05.129Z,1.95
2023-10-08T18:24:33.914Z,2.10
2023-10-08T18:27:01.848Z,2.03
2023-10-08T18:29:29.225Z,2.45
2023-10-08T18:31:56.602Z,1.95
2023-10-08T18:34:24.943Z,2.22
2023-10-08T18:36:52.237Z,2.40
2023-10-08T18:39:19.921Z,2.60
2023-10-08T18:41:47.815Z,2.60
2023-10-08T18:44:17.037Z,2.63
2023-10-08T18:46:45.660Z,2.10
2023-10-08T18:49:15.541Z,2.55
2023-10-08T18:51:46.411Z,2.78
2023-10-08T18:54:14.600Z,2.78
2023-10-08T18:56:42.886Z,3.17
2023-10-08T18:59:10.689Z,4.63
2023-10-08T19:01:44.767Z,3.88
2023-10-08T19:04:14.734Z,3.45
2023-10-08T19:06:42.852Z,3.10
2023-10-08T19:09:12.925Z,3.42
2023-10-08T19:11:41.710Z,3.10
2023-10-08T19:14:09.245Z,3.40
2023-10-08T19:16:37.515Z,3.05
2023-10-08T19:19:05.663Z,3.47
2023-10-08T19:21:34.117Z,3.20
2023-10-08T19:24:04.305Z,3.25
2023-10-08T19:26:34.078Z,2.70
2023-10-08T19:29:01.533Z,2.63
2023-10-08T19:31:28.889Z,3.20
2023-10-08T19:33:56.903Z,2.70
2023-10-08T19:36:24.465Z,2.42
2023-10-08T19:38:52.084Z,2.97
2023-10-08T19:41:22.541Z,2.65
2023-10-08T19:43:53.285Z,2.75
2023-10-08T19:46:24.127Z,2.65
2023-10-08T19:48:52.895Z,2.47
2023-10-08T19:51:20.363Z,2.50
2023-10-08T19:53:56.025Z,2.97
2023-10-08T19:56:23.930Z,3.05
2023-10-08T19:58:51.406Z,2.85
2023-10-08T20:01:18.943Z,2.88
2023-10-08T20:03:46.978Z,2.97
2023-10-08T20:06:14.895Z,3.20
2023-10-08T20:08:42.481Z,2.65
2023-10-08T20:11:09.796Z,3.35
2023-10-08T20:13:37.110Z,2.63
2023-10-08T20:16:07.077Z,2.50
2023-10-08T20:18:36.775Z,2.63
2023-10-08T20:21:07.439Z,3.03
2023-10-08T20:23:39.715Z,2.90
2023-10-08T20:26:15.227Z,2.63
2023-10-08T20:28:43.275Z,2.60
2023-10-08T20:31:16.754Z,2.92
2023-10-08T20:33:47.859Z,2.90
2023-10-08T20:36:18.533Z,3.10
2023-10-08T20:38:47.929Z,2.80
2023-10-08T20:41:21.930Z,2.72
2023-10-08T20:43:49.854Z,3.45
2023-10-08T20:46:18.413Z,3.15
2023-10-08T20:48:47.203Z,2.53
2023-10-08T20:51:18.467Z,3.33
2023-10-08T20:53:47.959Z,3.15
2023-10-08T20:56:16.953Z,2.92
2023-10-08T20:58:44.841Z,3.00
2023-10-08T21:01:12.481Z,3.45
2023-10-08T21:03:40.174Z,3.25
2023-10-08T21:06:07.685Z,3.10
2023-10-08T21:08:36.310Z,3.45
2023-10-08T21:11:04.394Z,3.25
2023-10-08T21:13:32.050Z,3.03
2023-10-08T21:16:02.963Z,3.17
2023-10-08T21:18:31.577Z,3.45
2023-10-08T21:21:01.235Z,3.35
2023-10-08T21:23:28.534Z,3.42
2023-10-08T21:25:56.755Z,3.97
2023-10-08T21:28:24.483Z,3.60
2023-10-08T21:30:51.802Z,3.50
2023-10-08T21:33:19.285Z,3.40
2023-10-08T21:35:47.588Z,3.78
2023-10-08T21:38:15.240Z,3.30
2023-10-08T21:40:42.556Z,3.13
2023-10-08T21:43:09.853Z,3.17
2023-10-08T21:45:38.404Z,3.47
2023-10-08T21:48:07.334Z,3.17
2023-10-08T21:50:35.142Z,3.38
2023-10-08T21:53:02.453Z,2.85
2023-10-08T21:55:29.631Z,3.30
2023-10-08T21:57:56.887Z,2.97
2023-10-08T22:00:24.931Z,3.47
2023-10-08T22:02:55.070Z,3.35
2023-10-08T22:05:23.408Z,2.83
2023-10-08T22:07:51.615Z,3.00
2023-10-08T22:10:21.821Z,2.70
2023-10-08T22:12:50.562Z,2.90
2023-10-08T22:15:18.104Z,3.00
2023-10-08T22:17:46.587Z,3.10
2023-10-08T22:20:16.087Z,3.30
2023-10-08T22:22:44.499Z,2.97
2023-10-08T22:25:11.668Z,2.80
2023-10-08T22:27:40.055Z,2.55
2023-10-08T22:30:16.451Z,2.67
2023-10-08T22:32:43.798Z,3.20
2023-10-08T22:35:17.099Z,2.33
2023-10-08T22:38:02.934Z,2.78
2023-10-08T22:40:48.881Z,3.40
2023-10-08T22:43:17.224Z,3.05
2023-10-08T22:45:53.587Z,2.67
2023-10-08T22:48:30.353Z,2.60
2023-10-08T22:50:58.187Z,2.60
2023-10-08T22:53:26.511Z,3.15
2023-10-08T22:55:53.798Z,2.90
2023-10-08T22:58:22.513Z,2.58
2023-10-08T23:00:51.134Z,2.70
2023-10-08T23:03:25.813Z,2.67
2023-10-08T23:05:53.590Z,2.83
2023-10-08T23:08:22.038Z,2.55
2023-10-08T23:10:51.691Z,2.60
2023-10-08T23:13:20.460Z,2.58
2023-10-08T23:15:50.881Z,2.03
2023-10-08T23:18:24.565Z,2.83
2023-10-08T23:20:52.022Z,2.50
2023-10-08T23:23:21.369Z,2.17
2023-10-08T23:25:48.972Z,2.30
2023-10-08T23:28:17.301Z,2.30
2023-10-08T23:30:44.647Z,2.47
2023-10-08T23:33:12.009Z,2.30
2023-10-08T23:35:41.543Z,2.65
2023-10-08T23:38:19.321Z,2.65
2023-10-08T23:40:47.353Z,2.30
2023-10-08T23:43:19.127Z,2.22
2023-10-08T23:46:01.294Z,2.22
2023-10-08T23:48:31.442Z,2.78
2023-10-08T23:50:59.881Z,2.42
2023-10-08T23:53:30.270Z,2.80
2023-10-08T23:56:05.982Z,2.38
2023-10-08T23:58:39.562Z,2.38
